Aérodrome :
LOGIN :

S'inscrire | Disclaimer

   EN    FR    IT 

 










Légende :    VFR   VFR Marginal   IFR   IFR Intensif   IFR Très Intensif
Visi : 
Plafond : 
>= 8 km
>= 3000ft
5 à 8 km
1000 à 3000 ft
1500m à 5 km
500 à 1000 ft
800 à 1500m
200 à 500 ft
< 800m
< 200 ft
Symboles :   Orages  Brouillard  Fortes neiges  Fortes précipitations  Vent > 20 kt
SIGMETs :   Divers  Orages  Givrage  Turbulence  Onde Orograph.  Cendres Volcan.






- Altitude de l'aérodrome : 400 ft
- Code IATA : BNX


LQBK - Banja Luka

DERNIER METAR :
  • 291800Z 16004KT 7000 NSC 01/01 Q1013 NOSIG

METARs EXPIRÉS :
  • 291730Z VRB02KT CAVOK 02/02 Q1013 NOSIG
  • 291700Z VRB02KT CAVOK 03/02 Q1013 NOSIG
  • 291630Z 20003KT CAVOK 04/03 Q1012 NOSIG
  • 291600Z 21004KT CAVOK 05/04 Q1012 NOSIG
  • 291530Z VRB02KT 9999 FEW023 07/04 Q1011 NOSIG

TAF TAF LQBK
Valide du 29 à 18h jusqu'au 30 à 18h UTC


291700Z 2918/3018 20005KT 9999 SCT040 TX09/3013Z TN00/3006Z
PROB30
TEMPO 3000/3003 32010KT SHSN FEW010 FEW030TCU BKN040
PROB30
TEMPO 3003/3008 1500 BR BKN012
TEMPO 3015/3018 26010KT



MET'MAP, la Météo Aéronautique d'un coup d'oeil ! - Copyright ORBIFLY Décembre 2007 - Disclaimer

ORBIFLY MET'MAP TEAM :

Programmation & Développement : Alexandra Zaïnal
Sur une idée originale de : Baudouin d'Aumeries
Assistance à la programmation : Marc-Olivier Méhu
Soutien technique & logistique : Manuel Goepfert

Contact : metmap@orbifly.com




SOURCES & CREDITS :

   NOAA